createdAt,value
2018-10-02T00:02:10.761Z,7.70
2018-10-02T00:04:38.251Z,7.71
2018-10-02T00:07:06.327Z,7.72
2018-10-02T00:09:34.117Z,7.73
2018-10-02T00:12:06.707Z,7.75
2018-10-02T00:14:34.175Z,7.75
2018-10-02T00:17:02.617Z,7.76
2018-10-02T00:19:30.088Z,7.75
2018-10-02T00:21:57.545Z,7.75
2018-10-02T00:24:24.989Z,7.74
2018-10-02T00:26:52.454Z,7.74
2018-10-02T00:29:19.898Z,7.75
2018-10-02T00:31:47.799Z,7.75
2018-10-02T00:34:15.373Z,7.75
2018-10-02T00:36:42.882Z,7.77
2018-10-02T00:39:10.331Z,7.77
2018-10-02T00:41:38.161Z,7.78
2018-10-02T00:44:05.606Z,7.79
2018-10-02T00:46:33.134Z,7.79
2018-10-02T00:49:00.887Z,7.78
2018-10-02T00:51:28.834Z,7.77
2018-10-02T00:53:56.331Z,7.76
2018-10-02T00:56:23.820Z,7.75
2018-10-02T00:58:52.906Z,7.74
2018-10-02T01:01:21.422Z,7.72
2018-10-02T01:03:48.861Z,7.68
2018-10-02T01:06:17.785Z,7.66
2018-10-02T01:08:45.237Z,7.64
2018-10-02T01:11:14.298Z,7.62
2018-10-02T01:13:41.778Z,7.58
2018-10-02T01:16:09.222Z,7.55
2018-10-02T01:18:36.673Z,7.54
2018-10-02T01:21:04.107Z,7.53
2018-10-02T01:23:31.593Z,7.51
2018-10-02T01:25:59.417Z,7.50
2018-10-02T01:28:26.846Z,7.49
2018-10-02T01:30:54.320Z,7.50
2018-10-02T01:33:22.123Z,7.50
2018-10-02T01:35:49.646Z,7.52
2018-10-02T01:38:17.198Z,7.54
2018-10-02T01:40:44.638Z,7.57
2018-10-02T01:43:12.645Z,7.59
2018-10-02T01:45:40.218Z,7.60
2018-10-02T01:48:07.672Z,7.62
2018-10-02T01:50:35.550Z,7.65
2018-10-02T01:53:02.984Z,7.67
2018-10-02T01:55:30.458Z,7.68
2018-10-02T01:57:59.578Z,7.66
2018-10-02T02:00:27.416Z,7.67
2018-10-02T02:02:54.869Z,7.66
2018-10-02T02:05:22.338Z,7.67
2018-10-02T02:07:49.779Z,7.69
2018-10-02T02:10:18.677Z,7.70
2018-10-02T02:12:46.161Z,7.72
2018-10-02T02:15:13.660Z,7.72
2018-10-02T02:17:41.335Z,7.73
2018-10-02T02:20:08.788Z,7.74
2018-10-02T02:22:37.289Z,7.75
2018-10-02T02:25:06.284Z,7.77
2018-10-02T02:27:34.199Z,7.78
2018-10-02T02:30:02.377Z,7.80
2018-10-02T02:32:29.910Z,7.82
2018-10-02T02:34:57.841Z,7.85
2018-10-02T02:37:25.329Z,7.85
2018-10-02T02:39:52.840Z,7.87
2018-10-02T02:42:20.461Z,7.87
2018-10-02T02:44:48.658Z,7.89
2018-10-02T02:47:21.245Z,7.88
2018-10-02T02:49:54.482Z,7.88
2018-10-02T02:52:24.740Z,7.89
2018-10-02T02:54:54.253Z,7.89
2018-10-02T02:57:21.756Z,7.90
2018-10-02T02:59:49.252Z,7.90
2018-10-02T03:02:16.783Z,7.90
2018-10-02T03:04:46.514Z,7.90
2018-10-02T03:07:14.000Z,7.88
2018-10-02T03:09:41.499Z,7.86
2018-10-02T03:12:10.361Z,7.81
2018-10-02T03:14:37.902Z,7.78
2018-10-02T03:17:05.381Z,7.75
2018-10-02T03:19:33.995Z,7.71
2018-10-02T03:22:01.493Z,7.67
2018-10-02T03:24:28.997Z,7.65
2018-10-02T03:26:58.988Z,7.62
2018-10-02T03:29:26.513Z,7.61
2018-10-02T03:31:53.999Z,7.60
2018-10-02T03:34:22.244Z,7.59
2018-10-02T03:36:50.408Z,7.61
2018-10-02T03:39:19.062Z,7.62
2018-10-02T03:41:46.989Z,7.63
2018-10-02T03:44:14.512Z,7.66
2018-10-02T03:46:41.988Z,7.69
2018-10-02T03:49:09.512Z,7.72
2018-10-02T03:51:37.002Z,7.73
2018-10-02T03:54:04.500Z,7.73
2018-10-02T03:56:32.236Z,7.74
2018-10-02T03:59:03.349Z,7.75
2018-10-02T04:01:30.856Z,7.77
2018-10-02T04:03:58.346Z,7.79
2018-10-02T04:06:25.858Z,7.82
2018-10-02T04:08:57.128Z,7.85
2018-10-02T04:11:24.609Z,7.88
2018-10-02T04:13:52.105Z,7.91
2018-10-02T04:16:19.588Z,7.93
2018-10-02T04:18:48.392Z,7.96
2018-10-02T04:21:19.937Z,7.99
2018-10-02T04:23:47.434Z,8.01
2018-10-02T04:26:15.265Z,8.04
2018-10-02T04:28:42.748Z,8.07
2018-10-02T04:31:10.250Z,8.09
2018-10-02T04:33:38.234Z,8.11
2018-10-02T04:36:06.477Z,8.15
2018-10-02T04:38:33.941Z,8.16
2018-10-02T04:41:01.828Z,8.19
2018-10-02T04:43:29.338Z,8.22
2018-10-02T04:45:56.821Z,8.26
2018-10-02T04:48:25.637Z,8.30
2018-10-02T04:50:53.119Z,8.35
2018-10-02T04:53:20.640Z,8.38
2018-10-02T04:55:50.472Z,8.42
2018-10-02T04:58:17.968Z,8.45
2018-10-02T05:00:45.481Z,8.49
2018-10-02T05:03:15.288Z,8.51
2018-10-02T05:05:42.837Z,8.54
2018-10-02T05:08:10.412Z,8.57
2018-10-02T05:13:14.081Z,8.60
2018-10-02T05:15:42.024Z,8.63
2018-10-02T05:18:09.574Z,8.64
2018-10-02T05:20:37.210Z,8.65
2018-10-02T05:23:05.060Z,8.68
2018-10-02T05:25:32.601Z,8.69
2018-10-02T05:28:00.642Z,8.71
2018-10-02T05:30:30.093Z,8.71
2018-10-02T05:32:58.414Z,8.72
2018-10-02T05:35:26.011Z,8.74
2018-10-02T05:37:54.658Z,8.75
2018-10-02T05:40:22.204Z,8.77
2018-10-02T05:42:49.777Z,8.77
2018-10-02T05:45:17.668Z,8.77
2018-10-02T05:47:45.698Z,8.78
2018-10-02T05:50:13.226Z,8.79
2018-10-02T05:52:41.841Z,8.80
2018-10-02T05:55:09.388Z,8.81
2018-10-02T05:57:37.986Z,8.79
2018-10-02T06:00:09.241Z,8.74
2018-10-02T06:02:38.422Z,8.64
2018-10-02T06:05:05.986Z,8.55
2018-10-02T06:07:34.009Z,8.44
2018-10-02T06:10:02.179Z,8.35
2018-10-02T06:12:30.885Z,8.29
2018-10-02T06:14:58.808Z,8.23
2018-10-02T06:17:56.634Z,8.18
2018-10-02T06:20:27.747Z,8.15
2018-10-02T06:22:55.364Z,8.13
2018-10-02T06:25:23.214Z,8.11
2018-10-02T06:27:52.103Z,8.10
2018-10-02T06:30:20.335Z,8.10
2018-10-02T06:32:48.005Z,8.09
2018-10-02T06:35:16.912Z,8.07
2018-10-02T06:37:44.449Z,8.09
2018-10-02T06:40:13.259Z,8.09
2018-10-02T06:42:43.709Z,8.09
2018-10-02T06:45:14.311Z,8.08
2018-10-02T06:47:43.065Z,8.08
2018-10-02T06:50:10.982Z,8.10
2018-10-02T06:52:38.818Z,8.10
2018-10-02T06:55:07.033Z,8.12
2018-10-02T06:57:36.160Z,8.13
2018-10-02T07:00:04.301Z,8.14
2018-10-02T07:02:32.551Z,8.14
2018-10-02T07:05:00.462Z,8.15
2018-10-02T07:07:28.082Z,8.16
2018-10-02T07:09:55.618Z,8.17
2018-10-02T07:12:23.590Z,8.19
2018-10-02T07:14:52.331Z,8.21
2018-10-02T07:17:20.786Z,8.24
2018-10-02T07:19:50.213Z,8.25
2018-10-02T07:22:18.506Z,8.30
2018-10-02T07:27:23.623Z,8.34
2018-10-02T07:29:52.303Z,8.36
2018-10-02T07:32:20.696Z,8.38
2018-10-02T07:34:50.297Z,8.39
2018-10-02T07:37:17.924Z,8.42
2018-10-02T07:39:47.243Z,8.43
2018-10-02T07:42:15.157Z,8.45
2018-10-02T07:44:43.514Z,8.46
2018-10-02T07:47:12.350Z,8.47
2018-10-02T07:49:43.673Z,8.49
2018-10-02T07:52:15.437Z,8.52
2018-10-02T07:54:46.512Z,8.55
2018-10-02T07:57:17.718Z,8.59
2018-10-02T07:59:45.725Z,8.57
2018-10-02T08:02:15.242Z,8.54
2018-10-02T08:04:46.792Z,8.51
2018-10-02T08:07:15.346Z,8.49
2018-10-02T08:09:43.618Z,8.46
2018-10-02T08:12:13.846Z,8.41
2018-10-02T08:14:41.801Z,8.37
2018-10-02T08:17:15.504Z,8.34
2018-10-02T08:19:43.469Z,8.35
2018-10-02T08:22:12.104Z,8.35
2018-10-02T08:24:39.629Z,8.36
2018-10-02T08:27:08.576Z,8.35
2018-10-02T08:29:36.830Z,8.36
2018-10-02T08:32:07.688Z,8.37
2018-10-02T08:34:39.813Z,8.36
2018-10-02T08:37:08.300Z,8.39
2018-10-02T08:39:37.462Z,8.39
2018-10-02T08:42:06.393Z,8.41
2018-10-02T08:44:34.564Z,8.42
2018-10-02T08:47:03.187Z,8.43
2018-10-02T08:49:31.206Z,8.45
2018-10-02T08:51:58.883Z,8.46
2018-10-02T08:54:28.278Z,8.47
2018-10-02T08:56:57.948Z,8.48
2018-10-02T09:02:08.673Z,8.55
2018-10-02T09:04:38.313Z,8.60
2018-10-02T09:07:05.951Z,8.66
2018-10-02T09:09:37.230Z,8.72
2018-10-02T09:12:04.813Z,8.74
2018-10-02T09:14:32.576Z,8.74
2018-10-02T09:17:02.337Z,8.83
2018-10-02T09:19:30.924Z,8.92
2018-10-02T09:21:58.511Z,8.98
2018-10-02T09:24:26.534Z,9.04
2018-10-02T09:26:54.111Z,9.10
2018-10-02T09:29:22.494Z,9.15
2018-10-02T09:31:56.747Z,9.23
2018-10-02T09:34:30.169Z,9.31
2018-10-02T09:37:04.027Z,9.34
2018-10-02T09:39:37.088Z,9.39
2018-10-02T09:42:12.009Z,9.45
2018-10-02T09:44:39.963Z,9.45
2018-10-02T09:47:11.241Z,9.47
2018-10-02T09:49:40.224Z,9.50
2018-10-02T09:52:08.645Z,9.53
2018-10-02T09:54:39.070Z,9.57
2018-10-02T09:57:12.079Z,9.58
2018-10-02T09:59:39.656Z,9.59
2018-10-02T10:03:17.742Z,9.57
2018-10-02T10:05:46.252Z,9.56
2018-10-02T10:08:14.400Z,9.52
2018-10-02T10:10:42.633Z,9.52
2018-10-02T10:13:12.931Z,9.51
2018-10-02T10:15:41.301Z,9.48
2018-10-02T10:18:12.571Z,9.48
2018-10-02T10:20:40.205Z,9.49
2018-10-02T10:23:07.786Z,9.51
2018-10-02T10:25:43.587Z,9.56
2018-10-02T10:28:12.097Z,9.63
2018-10-02T10:30:40.403Z,9.67
2018-10-02T10:33:10.170Z,9.69
2018-10-02T10:35:38.354Z,9.70
2018-10-02T10:38:05.900Z,9.75
2018-10-02T10:40:36.682Z,9.73
2018-10-02T10:43:06.051Z,9.75
2018-10-02T10:45:35.271Z,9.75
2018-10-02T10:48:07.293Z,9.74
2018-10-02T10:50:37.255Z,9.73
2018-10-02T10:53:06.149Z,9.72
2018-10-02T10:55:41.730Z,9.72
2018-10-02T10:58:11.164Z,9.74
2018-10-02T11:00:44.793Z,9.74
2018-10-02T11:03:16.181Z,9.77
2018-10-02T11:05:44.345Z,9.79
2018-10-02T11:08:12.524Z,9.83
2018-10-02T11:10:42.589Z,9.87
2018-10-02T11:13:10.139Z,9.88
2018-10-02T11:15:39.309Z,9.94
2018-10-02T11:18:08.493Z,10.00
2018-10-02T11:20:37.945Z,10.02
2018-10-02T11:23:06.469Z,10.05
2018-10-02T11:25:42.263Z,10.09
2018-10-02T11:28:11.290Z,10.11
2018-10-02T11:30:43.693Z,10.11
2018-10-02T11:33:11.459Z,10.12
2018-10-02T11:35:39.875Z,10.12
2018-10-02T11:38:07.746Z,10.14
2018-10-02T11:40:36.245Z,10.15
2018-10-02T11:43:06.544Z,10.13
2018-10-02T11:45:34.393Z,10.11
2018-10-02T11:48:02.969Z,10.10
2018-10-02T11:50:31.345Z,10.10
2018-10-02T11:52:59.616Z,10.14
2018-10-02T11:55:28.188Z,10.17
2018-10-02T11:57:58.462Z,10.14
2018-10-02T12:00:28.228Z,10.17
2018-10-02T12:02:56.429Z,10.21
2018-10-02T12:05:32.904Z,10.25
2018-10-02T12:08:00.490Z,10.24
2018-10-02T12:10:29.714Z,10.22
2018-10-02T12:13:00.981Z,10.24
2018-10-02T12:15:29.405Z,10.21
2018-10-02T12:17:56.999Z,10.22
2018-10-02T12:20:29.445Z,10.22
2018-10-02T12:23:00.064Z,10.20
2018-10-02T12:28:00.059Z,10.17
2018-10-02T12:30:28.119Z,10.17
2018-10-02T12:32:55.999Z,10.15
2018-10-02T12:35:24.911Z,10.18
2018-10-02T12:37:52.985Z,10.20
2018-10-02T12:40:20.510Z,10.21
2018-10-02T12:42:49.346Z,10.24
2018-10-02T12:45:17.528Z,10.31
2018-10-02T12:47:49.331Z,10.36
2018-10-02T12:50:23.442Z,10.41
2018-10-02T12:52:53.463Z,10.44
2018-10-02T12:55:22.285Z,10.44
2018-10-02T12:57:52.786Z,10.45
2018-10-02T13:00:24.452Z,10.47
2018-10-02T13:02:52.600Z,10.52
2018-10-02T13:05:22.974Z,10.56
2018-10-02T13:07:51.983Z,10.59
2018-10-02T13:10:20.213Z,10.62
2018-10-02T13:12:48.886Z,10.63
2018-10-02T13:15:16.465Z,10.64
2018-10-02T13:17:44.682Z,10.66
2018-10-02T13:20:19.881Z,10.66
2018-10-02T13:22:47.428Z,10.67
2018-10-02T13:25:17.690Z,10.70
2018-10-02T13:27:49.590Z,10.72
2018-10-02T13:30:19.952Z,10.73
2018-10-02T13:32:48.555Z,10.75
2018-10-02T13:35:18.491Z,10.78
2018-10-02T13:37:55.575Z,10.81
2018-10-02T13:40:31.570Z,10.85
2018-10-02T13:42:59.938Z,10.88
2018-10-02T13:45:30.468Z,10.91
2018-10-02T13:48:01.834Z,10.94
2018-10-02T13:50:32.245Z,10.97
2018-10-02T13:53:00.727Z,11.01
2018-10-02T13:55:30.586Z,11.06
2018-10-02T13:58:02.093Z,11.09
2018-10-02T14:00:30.647Z,11.13
2018-10-02T14:02:59.451Z,11.19
2018-10-02T14:05:27.026Z,11.23
2018-10-02T14:07:54.624Z,11.29
2018-10-02T14:10:25.950Z,11.37
2018-10-02T14:12:55.337Z,11.43
2018-10-02T14:15:24.644Z,11.51
2018-10-02T14:17:57.397Z,11.57
2018-10-02T14:20:25.637Z,11.60
2018-10-02T14:22:53.559Z,11.64
2018-10-02T14:25:23.230Z,11.69
2018-10-02T14:27:51.743Z,11.71
2018-10-02T14:30:21.554Z,11.75
2018-10-02T14:32:50.550Z,11.77
2018-10-02T14:35:19.089Z,11.80
2018-10-02T14:37:48.120Z,11.84
2018-10-02T14:40:22.546Z,11.89
2018-10-02T14:42:51.993Z,11.93
2018-10-02T14:45:20.188Z,11.96
2018-10-02T14:47:50.504Z,11.98
2018-10-02T14:50:19.231Z,12.02
2018-10-02T14:52:49.034Z,12.05
2018-10-02T14:55:19.362Z,12.08
2018-10-02T14:57:48.480Z,12.09
2018-10-02T15:00:16.064Z,12.13
2018-10-02T15:02:46.827Z,12.16
2018-10-02T15:05:14.650Z,12.19
2018-10-02T15:07:46.341Z,12.23
2018-10-02T15:10:19.813Z,12.28
2018-10-02T15:12:47.325Z,12.33
2018-10-02T15:15:16.358Z,12.41
2018-10-02T15:17:45.214Z,12.45
2018-10-02T15:20:15.185Z,12.51
2018-10-02T15:22:46.443Z,12.61
2018-10-02T15:25:15.325Z,12.71
2018-10-02T15:27:45.189Z,12.80
2018-10-02T15:30:13.353Z,12.86
2018-10-02T15:32:44.585Z,12.91
2018-10-02T15:35:14.376Z,12.93
2018-10-02T15:37:42.670Z,12.90
2018-10-02T15:40:11.404Z,12.89
2018-10-02T15:42:38.911Z,12.91
2018-10-02T15:45:06.494Z,12.91
2018-10-02T15:47:34.441Z,12.91
2018-10-02T15:50:03.415Z,12.91
2018-10-02T15:52:31.698Z,12.89
2018-10-02T15:55:02.129Z,12.87
2018-10-02T15:57:31.518Z,12.85
2018-10-02T16:00:01.303Z,12.88
2018-10-02T16:02:31.237Z,12.91
2018-10-02T16:05:01.674Z,12.91
2018-10-02T16:07:36.344Z,12.94
2018-10-02T16:10:07.336Z,12.96
2018-10-02T16:12:35.630Z,12.97
2018-10-02T16:15:03.945Z,13.00
2018-10-02T16:17:36.359Z,13.03
2018-10-02T16:20:03.914Z,13.04
2018-10-02T16:22:31.491Z,13.02
2018-10-02T16:24:59.537Z,13.02
2018-10-02T16:27:28.589Z,13.00
2018-10-02T16:29:58.088Z,12.98
2018-10-02T16:32:27.615Z,12.93
2018-10-02T16:34:56.717Z,12.89
2018-10-02T16:37:25.106Z,12.87
2018-10-02T16:39:53.384Z,12.85
2018-10-02T16:42:23.514Z,12.82
2018-10-02T16:44:53.383Z,12.81
2018-10-02T16:47:24.598Z,12.79
2018-10-02T16:49:58.135Z,12.78
2018-10-02T16:52:25.695Z,12.79
2018-10-02T16:54:57.774Z,12.77
2018-10-02T16:57:27.316Z,12.77
2018-10-02T16:59:55.247Z,12.80
2018-10-02T17:05:04.510Z,12.79
2018-10-02T17:07:32.702Z,12.78
2018-10-02T17:10:02.834Z,12.78
2018-10-02T17:12:31.308Z,12.77
2018-10-02T17:15:00.083Z,12.75
2018-10-02T17:20:11.384Z,12.73
2018-10-02T17:25:14.910Z,12.72
2018-10-02T17:27:46.051Z,12.69
2018-10-02T17:30:16.161Z,12.66
2018-10-02T17:32:45.125Z,12.66
2018-10-02T17:35:15.767Z,12.64
2018-10-02T17:37:43.317Z,12.65
2018-10-02T17:40:12.508Z,12.64
2018-10-02T17:42:43.366Z,12.64
2018-10-02T17:45:13.949Z,12.64
2018-10-02T17:47:41.815Z,12.61
2018-10-02T17:50:12.485Z,12.62
2018-10-02T17:52:41.194Z,12.59
2018-10-02T17:55:10.513Z,12.58
2018-10-02T17:57:39.169Z,12.58
2018-10-02T18:00:09.188Z,12.58
2018-10-02T18:02:36.709Z,12.59
2018-10-02T18:05:04.255Z,12.56
2018-10-02T18:07:36.053Z,12.56
2018-10-02T18:10:04.244Z,12.55
2018-10-02T18:12:32.769Z,12.54
2018-10-02T18:15:01.454Z,12.54
2018-10-02T18:17:31.490Z,12.54
2018-10-02T18:20:00.987Z,12.53
2018-10-02T18:22:30.380Z,12.53
2018-10-02T18:25:02.588Z,12.53
2018-10-02T18:27:33.273Z,12.56
2018-10-02T18:30:03.409Z,12.59
2018-10-02T18:32:34.016Z,12.60
2018-10-02T18:35:02.410Z,12.62
2018-10-02T18:37:38.778Z,12.62
2018-10-02T18:40:07.502Z,12.60
2018-10-02T18:42:35.039Z,12.56
2018-10-02T18:45:03.648Z,12.56
2018-10-02T18:50:20.594Z,12.55
2018-10-02T18:52:52.251Z,12.53
2018-10-02T18:55:22.217Z,12.55
2018-10-02T18:58:20.480Z,12.55
2018-10-02T19:00:59.513Z,12.54
2018-10-02T19:03:29.432Z,12.50
2018-10-02T19:05:59.724Z,12.45
2018-10-02T19:08:32.347Z,12.39
2018-10-02T19:11:05.784Z,12.36
2018-10-02T19:13:35.253Z,12.35
2018-10-02T19:16:09.313Z,12.35
2018-10-02T19:18:41.833Z,12.35
2018-10-02T19:21:10.517Z,12.34
2018-10-02T19:23:41.306Z,12.33
2018-10-02T19:26:42.483Z,12.32
2018-10-02T19:29:10.305Z,12.31
2018-10-02T19:31:47.426Z,12.32
2018-10-02T19:34:15.323Z,12.30
2018-10-02T19:36:44.303Z,12.28
2018-10-02T19:39:24.415Z,12.25
2018-10-02T19:41:52.615Z,12.25
2018-10-02T19:44:26.958Z,12.22
2018-10-02T19:46:56.617Z,12.23
2018-10-02T19:49:32.345Z,12.24
2018-10-02T19:52:15.659Z,12.27
2018-10-02T19:54:43.392Z,12.28
2018-10-02T19:57:12.617Z,12.30
2018-10-02T19:59:42.268Z,12.30
2018-10-02T20:02:11.551Z,12.32
2018-10-02T20:04:41.378Z,12.35
2018-10-02T20:07:10.580Z,12.38
2018-10-02T20:09:39.766Z,12.41
2018-10-02T20:12:09.722Z,12.42
2018-10-02T20:14:40.121Z,12.43
2018-10-02T20:17:08.625Z,12.44
2018-10-02T20:19:38.314Z,12.47
2018-10-02T20:22:05.927Z,12.49
2018-10-02T20:24:36.356Z,12.50
2018-10-02T20:27:04.605Z,12.51
2018-10-02T20:29:36.490Z,12.53
2018-10-02T20:34:38.561Z,12.56
2018-10-02T20:37:08.087Z,12.58
2018-10-02T20:39:36.206Z,12.59
2018-10-02T20:42:05.445Z,12.60
2018-10-02T20:44:35.882Z,12.59
2018-10-02T20:47:03.449Z,12.59
2018-10-02T20:49:38.162Z,12.58
2018-10-02T20:52:06.625Z,12.58
2018-10-02T20:54:36.709Z,12.58
2018-10-02T20:57:07.840Z,12.57
2018-10-02T20:59:35.395Z,12.57
2018-10-02T21:02:06.982Z,12.56
2018-10-02T21:04:34.916Z,12.54
2018-10-02T21:07:02.539Z,12.54
2018-10-02T21:09:30.471Z,12.53
2018-10-02T21:14:48.461Z,12.52
2018-10-02T21:17:19.592Z,12.51
2018-10-02T21:19:49.172Z,12.53
2018-10-02T21:24:46.480Z,12.51
2018-10-02T21:27:16.225Z,12.55
2018-10-02T21:29:44.502Z,12.57
2018-10-02T21:32:14.066Z,12.58
2018-10-02T21:34:43.344Z,12.59
2018-10-02T21:37:10.949Z,12.57
2018-10-02T21:39:40.876Z,12.56
2018-10-02T21:42:08.503Z,12.55
2018-10-02T21:44:37.865Z,12.54
2018-10-02T21:47:08.277Z,12.53
2018-10-02T21:49:37.069Z,12.54
2018-10-02T21:52:05.431Z,12.53
2018-10-02T21:54:35.597Z,12.50
2018-10-02T21:57:07.351Z,12.49
2018-10-02T21:59:37.883Z,12.48
2018-10-02T22:02:06.247Z,12.47
2018-10-02T22:04:36.456Z,12.44
2018-10-02T22:07:06.116Z,12.43
2018-10-02T22:09:34.734Z,12.42
2018-10-02T22:14:36.510Z,12.44
2018-10-02T22:17:05.657Z,12.44
2018-10-02T22:19:34.548Z,12.43
2018-10-02T22:22:02.463Z,12.44
2018-10-02T22:24:31.409Z,12.45
2018-10-02T22:26:59.654Z,12.47
2018-10-02T22:29:30.954Z,12.49
2018-10-02T22:31:59.090Z,12.51
2018-10-02T22:34:27.248Z,12.53
2018-10-02T22:36:59.331Z,12.54
2018-10-02T22:39:26.894Z,12.54
2018-10-02T22:41:54.447Z,12.54
2018-10-02T22:44:23.461Z,12.53
2018-10-02T22:46:51.937Z,12.52
2018-10-02T22:49:19.457Z,12.49
2018-10-02T22:51:47.279Z,12.48
2018-10-02T22:54:15.525Z,12.45
2018-10-02T22:56:43.317Z,12.44
2018-10-02T22:59:12.296Z,12.43
2018-10-02T23:01:39.854Z,12.40
2018-10-02T23:04:07.418Z,12.40
2018-10-02T23:06:37.426Z,12.40
2018-10-02T23:09:08.950Z,12.42
2018-10-02T23:11:36.472Z,12.41
2018-10-02T23:14:09.337Z,12.41
2018-10-02T23:16:36.859Z,12.42
2018-10-02T23:19:04.512Z,12.41
2018-10-02T23:21:32.524Z,12.38
2018-10-02T23:24:00.779Z,12.34
2018-10-02T23:26:28.941Z,12.33
2018-10-02T23:28:57.923Z,12.33
2018-10-02T23:31:25.484Z,12.34
2018-10-02T23:33:53.004Z,12.35
2018-10-02T23:36:21.634Z,12.35
2018-10-02T23:38:49.165Z,12.33
2018-10-02T23:41:16.734Z,12.31
2018-10-02T23:43:46.177Z,12.28
2018-10-02T23:46:14.222Z,12.24
2018-10-02T23:48:44.150Z,12.23
2018-10-02T23:51:12.597Z,12.22
2018-10-02T23:53:40.294Z,12.22
2018-10-02T23:56:08.810Z,12.22
2018-10-02T23:58:37.564Z,12.19
